Time;durP1;ratioP1;P1;durP2;ratioP2;P2;SDS_P1;SDS_P2;PMS_P1;PMS_P2;Temp;Humidity;BMP_temperature;BMP_pressure;BME280_temperature;BME280_humidity;BME280_pressure;Samples;Min_cycle;Max_cycle;Signal;HPM_P1;HPM_P2
2022/04/01 00:00:56;;;;;;;29.10;25.98;;;;;;;0.13;100.00;97144.97;2091201;28;20194;-70
2022/04/01 00:02:00;;;;;;;30.75;25.92;;;;;;;0.12;100.00;97132.94;2090195;28;20657;-70
2022/04/01 00:03:02;;;;;;;31.15;26.48;;;;;;;0.16;100.00;97134.72;2090498;28;20183;-70
2022/04/01 00:04:04;;;;;;;31.38;25.98;;;;;;;0.15;100.00;97132.38;2090904;28;20560;-70
2022/04/01 00:05:09;;;;;;;33.45;26.80;;;;;;;0.18;100.00;97137.09;2091047;28;20187;-70
2022/04/01 00:06:11;;;;;;;29.58;26.38;;;;;;;0.10;100.00;97132.44;2090534;28;20195;-70
2022/04/01 00:07:14;;;;;;;32.47;26.42;;;;;;;0.11;100.00;97131.38;2090458;28;20236;-70
2022/04/01 00:08:16;;;;;;;35.35;28.73;;;;;;;0.11;100.00;97126.13;2081774;28;20200;-70
2022/04/01 00:09:17;;;;;;;33.03;26.80;;;;;;;0.12;100.00;97123.22;2089855;28;20199;-70
2022/04/01 00:10:20;;;;;;;31.57;26.27;;;;;;;0.13;100.00;97124.00;2090714;28;20270;-70
2022/04/01 00:11:23;;;;;;;31.95;25.63;;;;;;;0.15;100.00;97121.88;2090989;28;20931;-70
2022/04/01 00:12:26;;;;;;;30.80;26.92;;;;;;;0.13;100.00;97126.63;2090087;28;20187;-70
2022/04/01 00:13:27;;;;;;;28.65;25.55;;;;;;;0.13;100.00;97126.63;2090322;28;20211;-70
2022/04/01 00:14:29;;;;;;;30.60;26.05;;;;;;;0.20;100.00;97127.09;2090795;28;20195;-70
2022/04/01 00:15:33;;;;;;;34.45;26.15;;;;;;;0.24;100.00;97125.47;2090031;28;20214;-70
2022/04/01 00:16:36;;;;;;;33.50;28.38;;;;;;;0.23;100.00;97118.66;2082645;28;20200;-70
2022/04/01 00:17:38;;;;;;;31.42;28.08;;;;;;;0.31;100.00;97122.53;2090343;28;20237;-70
2022/04/01 00:18:41;;;;;;;32.25;27.10;;;;;;;0.31;100.00;97112.03;2090762;28;20274;-70
2022/04/01 00:19:42;;;;;;;31.65;26.45;;;;;;;0.28;100.00;97116.00;2090834;28;20320;-70
2022/04/01 00:20:46;;;;;;;30.52;27.33;;;;;;;0.26;100.00;97116.28;2090496;28;20689;-70
2022/04/01 00:21:47;;;;;;;29.80;25.48;;;;;;;0.25;100.00;97111.28;2089917;28;20233;-70
2022/04/01 00:22:51;;;;;;;33.22;26.77;;;;;;;0.27;100.00;97114.44;2090790;28;20197;-70
2022/04/01 00:23:53;;;;;;;29.75;25.98;;;;;;;0.34;100.00;97112.25;2090028;28;20677;-70
2022/04/01 00:24:56;;;;;;;30.95;25.73;;;;;;;0.29;100.00;97125.44;2090289;28;20229;-70
2022/04/01 00:25:58;;;;;;;29.00;25.13;;;;;;;0.28;100.00;97116.00;2090698;28;20198;-70
2022/04/01 00:27:00;;;;;;;28.88;23.50;;;;;;;0.32;100.00;97122.25;2090168;28;20286;-70
2022/04/01 00:28:02;;;;;;;30.23;25.02;;;;;;;0.35;100.00;97118.28;2090186;28;20195;-70
2022/04/01 00:29:15;;;;;;;28.75;25.10;;;;;;;0.33;100.00;97121.19;2090394;28;20566;-70
2022/04/01 00:30:16;;;;;;;33.00;26.00;;;;;;;0.39;100.00;97120.09;2090615;28;20179;-70
2022/04/01 00:31:18;;;;;;;29.80;26.58;;;;;;;0.38;100.00;97117.75;2089996;28;20322;-70
2022/04/01 00:32:21;;;;;;;29.55;25.80;;;;;;;0.41;100.00;97117.19;2081951;28;20210;-70
2022/04/01 00:33:23;;;;;;;31.60;26.65;;;;;;;0.37;100.00;97124.81;2090224;28;20289;-70
2022/04/01 00:34:26;;;;;;;28.75;25.42;;;;;;;0.38;100.00;97123.78;2089906;28;20308;-70
2022/04/01 00:35:32;;;;;;;27.48;24.58;;;;;;;0.38;100.00;97118.53;2090108;28;20658;-70
2022/04/01 00:36:36;;;;;;;28.90;25.23;;;;;;;0.40;100.00;97119.03;2089581;28;20222;-70
2022/04/01 00:37:42;;;;;;;27.60;24.75;;;;;;;0.38;100.00;97120.38;2090084;28;20680;-72
2022/04/01 00:38:44;;;;;;;28.60;24.73;;;;;;;0.34;100.00;97117.50;2090059;28;20542;-70
2022/04/01 00:39:47;;;;;;;27.77;24.90;;;;;;;0.39;100.00;97116.69;2090067;28;20728;-70
2022/04/01 00:40:50;;;;;;;30.15;26.13;;;;;;;0.38;100.00;97109.88;2089913;28;20211;-70
2022/04/01 00:41:53;;;;;;;29.52;25.48;;;;;;;0.33;100.00;97108.06;2082016;28;20572;-70
2022/04/01 00:42:55;;;;;;;28.50;25.52;;;;;;;0.43;100.00;97115.81;2090305;28;20211;-70
2022/04/01 00:44:13;;;;;;;31.92;26.67;;;;;;;0.43;100.00;97113.22;2089686;28;20199;-70
2022/04/01 00:45:16;;;;;;;27.73;24.85;;;;;;;0.43;100.00;97102.72;2090473;28;20179;-70
2022/04/01 00:46:18;;;;;;;29.75;25.05;;;;;;;0.46;100.00;97112.66;2090640;28;20206;-70
2022/04/01 00:47:21;;;;;;;30.55;26.08;;;;;;;0.53;100.00;97109.72;2090521;28;20293;-70
2022/04/01 00:48:22;;;;;;;26.98;24.17;;;;;;;0.50;100.00;97116.28;2090629;28;20187;-70
2022/04/01 00:49:27;;;;;;;31.02;25.65;;;;;;;0.49;100.00;97119.97;2089564;28;20206;-70
2022/04/01 00:50:31;;;;;;;29.55;26.40;;;;;;;0.44;100.00;97114.78;2082124;28;20200;-70
2022/04/01 00:51:38;;;;;;;29.15;26.13;;;;;;;0.52;100.00;97122.06;2089610;28;20269;-70
2022/04/01 00:52:42;;;;;;;31.13;26.23;;;;;;;0.45;100.00;97111.09;2090562;28;20179;-70
2022/04/01 00:53:43;;;;;;;29.58;25.42;;;;;;;0.49;100.00;97114.72;2090589;28;20198;-70
2022/04/01 00:54:46;;;;;;;29.63;26.23;;;;;;;0.42;100.00;97116.91;2090711;28;20654;-70
2022/04/01 00:55:47;;;;;;;32.97;25.45;;;;;;;0.44;100.00;97116.63;2090539;28;20198;-70
2022/04/01 00:56:51;;;;;;;28.00;25.10;;;;;;;0.46;100.00;97117.91;2090513;28;20189;-70
2022/04/01 00:57:53;;;;;;;28.48;25.42;;;;;;;0.39;100.00;97109.59;2090299;28;20281;-70
2022/04/01 00:58:55;;;;;;;30.33;27.13;;;;;;;0.39;100.00;97114.84;2089920;28;20655;-70
2022/04/01 00:59:57;;;;;;;30.17;26.95;;;;;;;0.43;100.00;97113.22;2089943;28;20719;-70
2022/04/01 01:01:00;;;;;;;30.02;26.85;;;;;;;0.44;100.00;97117.41;2090214;28;20203;-70
2022/04/01 01:02:02;;;;;;;30.02;25.95;;;;;;;0.41;100.00;97114.56;2081815;28;20211;-70
2022/04/01 01:03:07;;;;;;;30.38;27.08;;;;;;;0.44;100.00;97112.16;2089922;28;20194;-70
2022/04/01 01:04:12;;;;;;;28.27;25.17;;;;;;;0.44;100.00;97119.25;2090613;28;20191;-70
2022/04/01 01:05:16;;;;;;;28.48;25.45;;;;;;;0.49;100.00;97106.84;2090592;28;20206;-70
2022/04/01 01:06:18;;;;;;;28.15;25.20;;;;;;;0.53;100.00;97112.34;2089324;28;20238;-70
2022/04/01 01:07:21;;;;;;;27.38;24.48;;;;;;;0.64;100.00;97113.00;2090018;28;20194;-70
2022/04/01 01:08:23;;;;;;;27.30;24.20;;;;;;;0.79;100.00;97123.34;2090490;28;20183;-70
2022/04/01 01:09:26;;;;;;;26.83;24.13;;;;;;;0.72;100.00;97110.56;2089808;28;20195;-70
2022/04/01 01:10:28;;;;;;;27.92;25.10;;;;;;;0.74;100.00;97112.91;2089837;28;20649;-70
2022/04/01 01:11:31;;;;;;;27.65;24.77;;;;;;;0.70;100.00;97120.56;2089053;28;20225;-70
2022/04/01 01:12:34;;;;;;;27.85;25.02;;;;;;;0.72;100.00;97120.28;2081812;28;20211;-71
2022/04/01 01:13:37;;;;;;;28.25;25.23;;;;;;;0.67;100.00;97117.69;2081709;28;20270;-71
2022/04/01 01:14:40;;;;;;;30.77;26.40;;;;;;;0.72;100.00;97115.03;2089907;28;20197;-71
2022/04/01 01:15:43;;;;;;;28.40;25.27;;;;;;;0.74;100.00;97116.28;2089653;28;20210;-70
2022/04/01 01:16:45;;;;;;;27.42;24.38;;;;;;;0.78;100.00;97108.63;2082020;28;20229;-71
2022/04/01 01:17:49;;;;;;;27.17;24.45;;;;;;;0.80;100.00;97106.53;2081655;28;20211;-70
2022/04/01 01:19:00;;;;;;;27.65;24.70;;;;;;;0.77;100.00;97104.44;2081757;28;20567;-70
2022/04/01 01:20:02;;;;;;;26.65;23.88;;;;;;;0.80;100.00;97111.78;2090007;28;20195;-71
2022/04/01 01:21:09;;;;;;;27.30;24.50;;;;;;;0.79;100.00;97107.59;2088585;28;20191;-70
2022/04/01 01:22:13;;;;;;;28.58;25.45;;;;;;;0.79;100.00;97105.75;2089484;28;20238;-70
2022/04/01 01:23:16;;;;;;;27.95;25.15;;;;;;;0.86;100.00;97110.63;2089775;28;20685;-70
2022/04/01 01:24:28;;;;;;;27.50;24.67;;;;;;;0.82;100.00;97110.44;2089638;28;20210;-70
2022/04/01 01:25:32;;;;;;;26.55;23.92;;;;;;;0.79;100.00;97099.72;2082789;28;20629;-70
2022/04/01 01:26:35;;;;;;;25.98;23.38;;;;;;;0.75;100.00;97101.34;2081779;28;20242;-70
2022/04/01 01:27:37;;;;;;;26.10;23.30;;;;;;;0.69;100.00;97103.22;2089764;28;20205;-70
2022/04/01 01:28:39;;;;;;;27.10;24.25;;;;;;;0.69;100.00;97105.84;2081884;28;20350;-70
2022/04/01 01:29:42;;;;;;;26.90;24.10;;;;;;;0.65;100.00;97098.81;2090129;28;20203;-71
2022/04/01 01:30:46;;;;;;;26.55;23.85;;;;;;;0.68;100.00;97103.50;2081711;28;20291;-70
2022/04/01 01:31:47;;;;;;;27.35;24.45;;;;;;;0.60;100.00;97093.63;2089812;28;20693;-70
2022/04/01 01:32:50;;;;;;;26.55;23.85;;;;;;;0.61;100.00;97100.44;2089526;28;20237;-71
2022/04/01 01:33:53;;;;;;;26.83;24.20;;;;;;;0.60;100.00;97098.88;2089826;28;20668;-70
2022/04/01 01:34:56;;;;;;;26.80;24.10;;;;;;;0.61;100.00;97103.06;2089612;28;20258;-70
2022/04/01 01:35:58;;;;;;;28.13;25.23;;;;;;;0.61;100.00;97097.81;2089445;28;20194;-70
2022/04/01 01:37:01;;;;;;;28.10;25.10;;;;;;;0.59;100.00;97097.31;2089701;28;20249;-70
2022/04/01 01:38:05;;;;;;;27.02;24.33;;;;;;;0.52;100.00;97089.78;2089964;28;20202;-70
2022/04/01 01:39:07;;;;;;;27.23;24.42;;;;;;;0.54;100.00;97091.06;2081587;28;20301;-70
2022/04/01 01:40:11;;;;;;;28.80;25.25;;;;;;;0.51;100.00;97083.75;2089606;28;20592;-70
2022/04/01 01:41:14;;;;;;;28.02;25.13;;;;;;;0.56;100.00;97088.94;2089733;28;20187;-70
2022/04/01 01:42:16;;;;;;;28.90;25.90;;;;;;;0.56;100.00;97083.69;2089607;28;20679;-70
2022/04/01 01:43:19;;;;;;;28.15;25.20;;;;;;;0.60;100.00;97081.28;2089535;28;20240;-70
2022/04/01 01:44:22;;;;;;;28.17;25.00;;;;;;;0.61;100.00;97082.06;2089544;28;20210;-70
2022/04/01 01:45:29;;;;;;;27.10;24.13;;;;;;;0.59;100.00;97074.47;2081796;28;20689;-70
2022/04/01 01:46:30;;;;;;;27.58;24.50;;;;;;;0.53;100.00;97075.63;2082692;28;20209;-71
2022/04/01 01:47:34;;;;;;;27.17;24.50;;;;;;;0.52;100.00;97074.03;2081730;28;20253;-70
2022/04/01 01:48:35;;;;;;;29.58;25.67;;;;;;;0.49;100.00;97072.75;2089708;28;20199;-70
2022/04/01 01:49:38;;;;;;;28.58;25.40;;;;;;;0.54;100.00;97079.81;2089509;28;20330;-71
2022/04/01 01:54:44;;;;;;;27.25;24.45;;;;;;;0.49;100.00;97078.00;2083795;28;20820;-70
2022/04/01 01:55:48;;;;;;;28.80;25.85;;;;;;;0.57;100.00;97081.84;2082597;28;20235;-70
2022/04/01 01:56:51;;;;;;;28.73;25.35;;;;;;;0.53;100.00;97071.16;2081806;28;20210;-70
2022/04/01 01:57:53;;;;;;;28.73;25.73;;;;;;;0.61;100.00;97069.75;2081577;28;20192;-71
2022/04/01 01:58:55;;;;;;;27.95;25.15;;;;;;;0.65;100.00;97072.59;2089535;28;20689;-71
2022/04/01 01:59:57;;;;;;;27.75;24.98;;;;;;;0.64;100.00;97071.03;2081485;28;20616;-70
2022/04/01 02:01:00;;;;;;;27.50;24.58;;;;;;;0.66;100.00;97069.69;2089829;28;20230;-70
2022/04/01 02:02:05;;;;;;;28.55;25.65;;;;;;;0.70;100.00;97075.94;2089696;28;20195;-71
2022/04/01 02:03:07;;;;;;;27.80;25.02;;;;;;;0.61;100.00;97068.94;2090348;28;20186;-70
2022/04/01 02:04:09;;;;;;;26.95;23.95;;;;;;;0.60;100.00;97067.38;2090244;28;20210;-70
2022/04/01 02:05:12;;;;;;;26.83;24.02;;;;;;;0.56;100.00;97081.06;2090174;28;20207;-71
2022/04/01 02:06:14;;;;;;;27.25;24.60;;;;;;;0.51;100.00;97075.88;2089751;28;20227;-70
2022/04/01 02:07:17;;;;;;;28.10;25.02;;;;;;;0.49;100.00;97074.59;2089543;28;20206;-70
2022/04/01 02:08:20;;;;;;;28.90;25.80;;;;;;;0.47;100.00;97077.50;2081491;28;20238;-70
2022/04/01 02:09:24;;;;;;;28.92;26.17;;;;;;;0.46;100.00;97077.78;2089673;28;20720;-70
2022/04/01 02:10:26;;;;;;;27.63;24.73;;;;;;;0.40;100.00;97076.28;2089555;28;20248;-70
2022/04/01 02:11:30;;;;;;;28.95;25.88;;;;;;;0.41;100.00;97072.59;2081679;28;20200;-71
2022/04/01 02:12:32;;;;;;;29.08;25.92;;;;;;;0.40;100.00;97071.03;2082020;28;20573;-71
2022/04/01 02:13:35;;;;;;;30.13;26.88;;;;;;;0.38;100.00;97068.69;2089499;28;20210;-70
2022/04/01 02:14:37;;;;;;;29.05;26.05;;;;;;;0.41;100.00;97068.13;2089427;28;20206;-71
2022/04/01 02:15:41;;;;;;;31.52;27.95;;;;;;;0.34;100.00;97061.63;2081332;28;20204;-71
2022/04/01 02:16:43;;;;;;;30.17;26.92;;;;;;;0.24;100.00;97063.31;2089629;28;20654;-70
2022/04/01 02:17:46;;;;;;;30.05;26.85;;;;;;;0.21;100.00;97060.47;2089458;28;20204;-70
2022/04/01 02:18:49;;;;;;;29.40;26.40;;;;;;;0.20;100.00;97061.53;2081556;28;20603;-71
2022/04/01 02:19:52;;;;;;;29.60;26.50;;;;;;;0.26;100.00;97065.66;2081293;28;20200;-71
2022/04/01 02:20:54;;;;;;;31.40;28.13;;;;;;;0.29;100.00;97059.88;2080690;28;20228;-71
2022/04/01 02:21:56;;;;;;;30.30;27.10;;;;;;;0.26;100.00;97065.66;2073200;28;20196;-71
2022/04/01 02:22:58;;;;;;;30.35;27.15;;;;;;;0.25;100.00;97061.47;2073236;28;20204;-70
2022/04/01 02:24:01;;;;;;;32.05;28.63;;;;;;;0.22;100.00;97060.19;2073276;28;20201;-71
2022/04/01 02:25:04;;;;;;;31.70;28.40;;;;;;;0.25;100.00;97061.47;2081485;28;20242;-71
2022/04/01 02:26:08;;;;;;;30.75;27.65;;;;;;;0.26;100.00;97055.97;2073396;28;20569;-71
2022/04/01 02:27:12;;;;;;;30.40;27.25;;;;;;;0.31;100.00;97063.00;2073479;28;20193;-71
2022/04/01 02:28:14;;;;;;;32.90;29.50;;;;;;;0.30;100.00;97064.03;2081868;28;20199;-71
2022/04/01 02:29:18;;;;;;;31.88;28.63;;;;;;;0.30;100.00;97068.50;2081296;28;20582;-71
2022/04/01 02:30:48;;;;;;;31.52;28.13;;;;;;;0.24;100.00;97067.78;2083746;28;20704;-71
2022/04/01 02:32:09;;;;;;;33.38;29.80;;;;;;;0.37;100.00;97061.88;2081934;28;20216;-71
2022/04/01 02:33:31;;;;;;;32.55;29.15;;;;;;;0.32;100.00;97066.38;2082957;28;20286;-71
2022/04/01 02:34:35;;;;;;;33.03;29.52;;;;;;;0.24;100.00;97062.53;2075140;28;20203;-71
2022/04/01 02:35:39;;;;;;;33.28;29.77;;;;;;;0.18;100.00;97058.41;2082792;28;20192;-71
2022/04/01 02:36:41;;;;;;;33.90;30.38;;;;;;;0.17;100.00;97062.06;2082430;28;20227;-71
2022/04/01 02:37:43;;;;;;;35.35;31.83;;;;;;;0.12;100.00;97054.28;2075022;28;20722;-71
2022/04/01 02:38:48;;;;;;;36.05;32.35;;;;;;;0.13;100.00;97067.09;2074757;28;20224;-71
2022/04/01 02:39:51;;;;;;;34.05;30.65;;;;;;;0.28;100.00;97066.94;2074892;28;20204;-71
2022/04/01 02:40:53;;;;;;;33.00;29.50;;;;;;;0.34;100.00;97067.66;2082771;28;20612;-71
2022/04/01 02:41:56;;;;;;;32.65;29.20;;;;;;;0.38;100.00;97067.91;2082777;28;20188;-71
2022/04/01 02:43:00;;;;;;;33.40;30.00;;;;;;;0.36;100.00;97064.78;2082981;28;20204;-71
2022/04/01 02:44:13;;;;;;;36.13;32.30;;;;;;;0.32;100.00;97069.78;2082766;28;20222;-71
2022/04/01 02:45:14;;;;;;;33.83;30.42;;;;;;;0.30;100.00;97065.88;2082700;28;20194;-71
2022/04/01 02:46:17;;;;;;;34.30;30.73;;;;;;;0.45;100.00;97063.13;2074585;28;20292;-71
2022/04/01 02:47:26;;;;;;;35.22;31.38;;;;;;;0.37;100.00;97066.34;2075949;28;20223;-71
2022/04/01 02:48:29;;;;;;;35.03;31.20;;;;;;;0.33;100.00;97073.19;2082852;28;20196;-71
2022/04/01 02:49:56;;;;;;;36.42;32.63;;;;;;;0.31;100.00;97070.84;2077958;28;20229;-71
2022/04/01 02:51:00;;;;;;;36.58;32.80;;;;;;;0.30;100.00;97061.44;2074330;28;20258;-71
2022/04/01 02:52:05;;;;;;;37.42;33.72;;;;;;;0.25;100.00;97067.50;2082577;28;20290;-71
2022/04/01 02:53:09;;;;;;;37.20;33.40;;;;;;;0.22;100.00;97064.66;2083001;28;20203;-71
2022/04/01 02:54:13;;;;;;;36.85;33.28;;;;;;;0.12;100.00;97059.50;2082535;28;20590;-71
2022/04/01 02:55:15;;;;;;;43.38;38.97;;;;;;;0.19;100.00;97058.13;2075064;28;20228;-71
2022/04/01 02:56:19;;;;;;;38.13;34.25;;;;;;;0.33;100.00;97053.00;2074644;28;20220;-71
2022/04/01 02:57:22;;;;;;;37.35;33.65;;;;;;;0.49;100.00;97057.00;2082285;28;20294;-71
2022/04/01 02:58:25;;;;;;;39.95;35.58;;;;;;;0.57;100.00;97053.00;2082568;28;20230;-71
2022/04/01 02:59:29;;;;;;;37.35;33.55;;;;;;;0.53;100.00;97060.66;2074551;28;20678;-71
2022/04/01 03:00:31;;;;;;;38.47;34.47;;;;;;;0.53;100.00;97052.78;2074863;28;20204;-71
2022/04/01 03:01:39;;;;;;;42.03;37.75;;;;;;;0.59;100.00;97056.09;2075020;28;20223;-71
2022/04/01 03:02:41;;;;;;;40.33;36.33;;;;;;;0.59;100.00;97053.50;2074547;28;20295;-71
2022/04/01 03:03:43;;;;;;;37.53;33.88;;;;;;;0.65;100.00;97051.59;2074646;28;20197;-71
2022/04/01 03:04:48;;;;;;;38.97;35.10;;;;;;;0.70;100.00;97057.56;2074891;28;20283;-71
2022/04/01 03:05:51;;;;;;;42.63;38.35;;;;;;;0.75;100.00;97056.72;2082577;28;20216;-71
2022/04/01 03:06:52;;;;;;;42.63;38.33;;;;;;;0.76;100.00;97058.28;2073972;28;20702;-71
2022/04/01 03:07:55;;;;;;;38.53;34.85;;;;;;;0.67;100.00;97052.09;2082824;28;20262;-71
2022/04/01 03:08:57;;;;;;;36.83;33.22;;;;;;;0.68;100.00;97049.19;2082341;28;20564;-71
2022/04/01 03:09:59;;;;;;;37.30;33.47;;;;;;;0.70;100.00;97049.69;2082610;28;20558;-71
2022/04/01 03:11:09;;;;;;;37.72;33.83;;;;;;;0.70;100.00;97046.28;2082702;28;20285;-71
2022/04/01 03:12:14;;;;;;;36.97;33.17;;;;;;;0.66;100.00;97055.78;2075145;28;20188;-71
2022/04/01 03:13:27;;;;;;;40.03;36.15;;;;;;;0.66;100.00;97048.69;2082796;28;20180;-71
2022/04/01 03:14:31;;;;;;;39.80;35.80;;;;;;;0.58;100.00;97046.69;2083370;28;20215;-71
2022/04/01 03:16:00;;;;;;;39.22;35.42;;;;;;;0.60;100.00;97046.41;2082971;28;20198;-71
2022/04/01 03:17:12;;;;;;;39.33;35.55;;;;;;;0.56;100.00;97049.59;2082634;28;20203;-71
2022/04/01 03:18:15;;;;;;;42.53;38.33;;;;;;;0.50;100.00;97049.91;2082387;28;20211;-71
2022/04/01 03:19:18;;;;;;;41.13;37.22;;;;;;;0.56;100.00;97054.84;2082388;28;20263;-71
2022/04/01 03:20:21;;;;;;;41.08;37.10;;;;;;;0.54;100.00;97054.34;2082753;28;20765;-71
2022/04/01 03:21:26;;;;;;;40.17;36.28;;;;;;;0.53;100.00;97049.38;2074075;28;20231;-71
2022/04/01 03:22:27;;;;;;;39.88;36.08;;;;;;;0.45;100.00;97047.38;2082436;28;20196;-71
2022/04/01 03:23:30;;;;;;;41.03;37.03;;;;;;;0.45;100.00;97039.50;2082320;28;20662;-71
2022/04/01 03:24:32;;;;;;;38.50;34.80;;;;;;;0.39;100.00;97046.63;2074197;28;20224;-71
2022/04/01 03:25:34;;;;;;;38.72;34.85;;;;;;;0.39;100.00;97048.47;2082564;28;20219;-71
2022/04/01 03:26:58;;;;;;;43.88;39.45;;;;;;;0.36;100.00;97049.84;2082400;28;20222;-71
2022/04/01 03:28:02;;;;;;;40.22;36.42;;;;;;;0.38;100.00;97046.91;2074516;28;20196;-71
2022/04/01 03:29:06;;;;;;;42.88;38.50;;;;;;;0.31;100.00;97049.88;2082283;28;20195;-71
2022/04/01 03:30:11;;;;;;;41.65;37.35;;;;;;;0.34;100.00;97051.94;2073891;28;20205;-71
2022/04/01 03:31:12;;;;;;;39.25;35.40;;;;;;;0.36;100.00;97043.81;2074897;28;20212;-71
2022/04/01 03:32:15;;;;;;;39.80;35.72;;;;;;;0.37;100.00;97043.53;2074188;28;20228;-71
2022/04/01 03:33:17;;;;;;;45.42;41.20;;;;;;;0.37;100.00;97046.16;2074409;28;20253;-71
2022/04/01 03:34:22;;;;;;;42.58;38.55;;;;;;;0.37;100.00;97051.38;2074159;28;20251;-71
2022/04/01 03:35:24;;;;;;;44.70;40.30;;;;;;;0.37;100.00;97054.00;2074491;28;20212;-71
2022/04/01 03:36:28;;;;;;;43.65;39.45;;;;;;;0.43;100.00;97050.25;2073751;28;20224;-71
2022/04/01 03:37:30;;;;;;;42.75;38.60;;;;;;;0.43;100.00;97049.47;2074528;28;20574;-71
2022/04/01 03:38:34;;;;;;;45.97;41.53;;;;;;;0.41;100.00;97041.09;2074055;28;20757;-71
2022/04/01 03:39:35;;;;;;;42.08;37.72;;;;;;;0.44;100.00;97043.19;2074260;28;20231;-71
2022/04/01 03:40:43;;;;;;;42.92;38.70;;;;;;;0.49;100.00;97049.13;2074229;28;20192;-71
2022/04/01 03:41:45;;;;;;;44.92;40.58;;;;;;;0.49;100.00;97049.13;2074529;28;20357;-71
2022/04/01 03:42:51;;;;;;;41.97;37.80;;;;;;;0.51;100.00;97039.16;2074539;28;20208;-71
2022/04/01 03:43:55;;;;;;;41.30;37.47;;;;;;;0.57;100.00;97040.66;2074395;28;20243;-71
2022/04/01 03:45:03;;;;;;;41.03;36.92;;;;;;;0.48;100.00;97042.34;2073613;28;20196;-71
2022/04/01 03:46:40;;;;;;;39.97;35.90;;;;;;;0.48;100.00;97042.34;2078149;28;20196;-71
2022/04/01 03:47:51;;;;;;;40.47;36.40;;;;;;;0.49;100.00;97038.66;2076003;28;20192;-71
2022/04/01 03:48:56;;;;;;;38.33;34.65;;;;;;;0.47;100.00;97040.78;2082497;28;20254;-71
2022/04/01 03:50:00;;;;;;;40.90;36.53;;;;;;;0.49;100.00;97043.13;2082203;28;20232;-71
2022/04/01 03:51:04;;;;;;;47.63;43.08;;;;;;;0.48;100.00;97039.72;2073833;28;20646;-70
2022/04/01 03:52:09;;;;;;;47.60;43.10;;;;;;;0.50;100.00;97042.81;2090928;28;20249;-70
2022/04/01 03:53:13;;;;;;;40.75;36.85;;;;;;;0.55;100.00;97032.28;2090372;28;20199;-70
2022/04/01 03:54:17;;;;;;;41.33;37.33;;;;;;;0.44;100.00;97043.97;2082032;28;20216;-71
2022/04/01 03:55:39;;;;;;;44.03;39.72;;;;;;;0.47;100.00;97035.53;2082660;28;20176;-71
2022/04/01 03:57:06;;;;;;;43.53;39.20;;;;;;;0.42;100.00;97040.81;2082283;28;20204;-71
2022/04/01 03:58:31;;;;;;;40.80;36.60;;;;;;;0.42;100.00;97046.06;2082966;28;20184;-71
2022/04/01 03:59:57;;;;;;;40.65;36.65;;;;;;;0.50;100.00;97036.81;2083023;28;20266;-71
2022/04/01 04:01:22;;;;;;;39.35;35.45;;;;;;;0.50;100.00;97042.81;2082111;28;20693;-71
2022/04/01 04:02:24;;;;;;;41.25;36.97;;;;;;;0.45;100.00;97048.16;2082177;28;20663;-71
2022/04/01 04:03:29;;;;;;;42.28;37.85;;;;;;;0.43;100.00;97037.13;2098509;28;20207;-71
2022/04/01 04:04:30;;;;;;;39.63;35.53;;;;;;;0.49;100.00;97046.53;2090130;28;20206;-71
2022/04/01 04:05:37;;;;;;;42.03;37.53;;;;;;;0.48;100.00;97047.59;2082302;28;20207;-71
2022/04/01 04:06:40;;;;;;;42.92;38.53;;;;;;;0.49;100.00;97040.50;2074205;28;20729;-71
2022/04/01 04:07:43;;;;;;;45.88;41.53;;;;;;;0.50;100.00;97055.94;2081993;28;20594;-71
2022/04/01 04:08:50;;;;;;;45.05;40.35;;;;;;;0.47;100.00;97051.28;2082024;28;20191;-71
2022/04/01 04:09:55;;;;;;;43.95;39.33;;;;;;;0.47;100.00;97051.28;2074108;28;20228;-71
2022/04/01 04:11:00;;;;;;;41.90;37.60;;;;;;;0.43;100.00;97050.25;2074683;28;20719;-71
2022/04/01 04:12:22;;;;;;;40.05;35.95;;;;;;;0.51;100.00;97049.63;2076770;28;20203;-71
2022/04/01 04:13:31;;;;;;;40.63;36.45;;;;;;;0.50;100.00;97050.69;2074947;28;20200;-71
2022/04/01 04:14:36;;;;;;;44.72;40.42;;;;;;;0.48;100.00;97052.84;2081916;28;20203;-71
2022/04/01 04:15:43;;;;;;;43.00;38.50;;;;;;;0.51;100.00;97047.00;2073927;28;20211;-71
2022/04/01 04:16:53;;;;;;;46.15;41.47;;;;;;;0.51;100.00;97049.63;2091552;28;20585;-71
2022/04/01 04:17:59;;;;;;;47.45;42.92;;;;;;;0.56;100.00;97049.59;2089499;28;20191;-71
2022/04/01 04:19:04;;;;;;;44.30;39.88;;;;;;;0.45;100.00;97053.41;2081966;28;20610;-70
2022/04/01 04:20:10;;;;;;;45.80;41.25;;;;;;;0.39;100.00;97058.97;2074372;28;20200;-71
2022/04/01 04:21:25;;;;;;;47.50;42.85;;;;;;;0.38;100.00;97058.19;2081413;28;20228;-71
2022/04/01 04:22:30;;;;;;;46.90;42.22;;;;;;;0.32;100.00;97059.28;2091162;28;20293;-71
2022/04/01 04:23:39;;;;;;;44.65;40.15;;;;;;;0.33;100.00;97065.31;2089288;28;20195;-71
2022/04/01 04:24:43;;;;;;;45.30;40.40;;;;;;;0.28;100.00;97060.94;2074320;28;20675;-71
2022/04/01 04:25:53;;;;;;;45.45;40.90;;;;;;;0.29;100.00;97065.13;2081767;28;20693;-71
2022/04/01 04:27:00;;;;;;;44.58;39.88;;;;;;;0.27;100.00;97064.63;2074788;28;20196;-71
2022/04/01 04:28:01;;;;;;;48.33;43.38;;;;;;;0.32;100.00;97061.91;2081873;28;20203;-71
2022/04/01 04:29:09;;;;;;;46.53;42.03;;;;;;;0.39;100.00;97065.00;2081896;28;20223;-71
2022/04/01 04:30:30;;;;;;;42.53;38.05;;;;;;;0.25;100.00;97049.13;2076225;28;20655;-71
2022/04/01 04:32:03;;;;;;;44.97;40.22;;;;;;;0.21;100.00;97045.53;2082081;28;20203;-71
2022/04/01 04:33:07;;;;;;;44.90;40.10;;;;;;;0.14;100.00;97041.66;2082444;28;20228;-71
2022/04/01 04:34:10;;;;;;;46.90;41.50;;;;;;;0.10;100.00;97033.59;2081699;28;20191;-71
2022/04/01 04:35:13;;;;;;;56.38;51.08;;;;;;;0.18;100.00;97040.06;2081858;28;20333;-71
2022/04/01 04:36:19;;;;;;;59.22;53.97;;;;;;;0.24;100.00;97041.56;2081278;28;20686;-71
2022/04/01 04:37:34;;;;;;;54.63;49.80;;;;;;;0.25;100.00;97038.66;2082131;28;20176;-71
2022/04/01 04:38:38;;;;;;;49.90;45.22;;;;;;;0.24;100.00;97044.94;2090231;28;20666;-71
2022/04/01 04:39:40;;;;;;;48.45;43.70;;;;;;;0.27;100.00;97049.66;2097767;28;20236;-71
2022/04/01 04:40:43;;;;;;;52.72;47.42;;;;;;;0.26;100.00;97049.91;2098208;28;20206;-71
2022/04/01 04:41:50;;;;;;;50.90;45.67;;;;;;;0.36;100.00;97055.06;2089358;28;20274;-71
2022/04/01 04:42:53;;;;;;;48.85;44.25;;;;;;;0.42;100.00;97048.69;2074080;28;20625;-71
2022/04/01 04:43:57;;;;;;;56.40;51.30;;;;;;;0.43;100.00;97054.72;2073825;28;20200;-71
2022/04/01 04:45:02;;;;;;;48.97;44.17;;;;;;;0.48;100.00;97067.78;2081679;28;20537;-71
2022/04/01 04:46:04;;;;;;;42.58;38.03;;;;;;;0.46;100.00;97064.66;2090297;28;20661;-71
2022/04/01 04:47:08;;;;;;;42.05;37.78;;;;;;;0.53;100.00;97070.38;2089789;28;20199;-71
2022/04/01 04:48:11;;;;;;;42.42;37.97;;;;;;;0.52;100.00;97060.91;2073802;28;20307;-71
2022/04/01 04:49:13;;;;;;;40.95;36.70;;;;;;;0.42;100.00;97068.91;2073504;28;20196;-71
2022/04/01 04:50:16;;;;;;;42.33;38.03;;;;;;;0.48;100.00;97055.44;2074075;28;20693;-71
2022/04/01 04:51:24;;;;;;;40.40;36.30;;;;;;;0.44;100.00;97061.56;2073439;28;20697;-71
2022/04/01 04:52:49;;;;;;;42.92;38.65;;;;;;;0.41;100.00;97046.34;2082062;28;20222;-71
2022/04/01 04:53:52;;;;;;;69.32;63.63;;;;;;;0.44;100.00;97064.97;2098293;28;20259;-71
2022/04/01 04:54:55;;;;;;;45.92;41.05;;;;;;;0.56;100.00;97062.72;2089583;28;20222;-71
2022/04/01 04:56:03;;;;;;;67.38;61.72;;;;;;;0.54;100.00;97056.97;2074459;28;20251;-71
2022/04/01 04:57:07;;;;;;;46.20;41.55;;;;;;;0.62;100.00;97066.06;2073675;28;20255;-71
2022/04/01 04:58:14;;;;;;;45.38;40.83;;;;;;;0.58;100.00;97067.66;2073997;28;20239;-71
2022/04/01 04:59:28;;;;;;;44.53;40.05;;;;;;;0.52;100.00;97069.59;2081770;28;20191;-71
2022/04/01 05:00:31;;;;;;;42.67;38.47;;;;;;;0.60;100.00;97070.78;2090613;28;20277;-71
2022/04/01 05:02:05;;;;;;;39.28;35.42;;;;;;;0.54;100.00;97072.72;2090093;28;20203;-71
2022/04/01 05:03:32;;;;;;;39.35;35.40;;;;;;;0.53;100.00;97063.28;2081657;28;20559;-71
2022/04/01 05:04:59;;;;;;;39.38;35.58;;;;;;;0.55;100.00;97068.25;2077630;28;20230;-71